sensor_id;sensor_type;location;lat;lon;timestamp;pressure;altitude;pressure_sealevel;temperature;humidity
72428;BME280;60419;48.880;18.036;2023-04-21T00:00:16;99087.16;;;11.08;58.17
72428;BME280;60419;48.880;18.036;2023-04-21T00:03:01;99070.50;;;10.92;58.44
72428;BME280;60419;48.880;18.036;2023-04-21T00:05:47;99068.97;;;10.99;58.70
72428;BME280;60419;48.880;18.036;2023-04-21T00:08:32;99078.41;;;10.88;59.06
72428;BME280;60419;48.880;18.036;2023-04-21T00:11:21;99062.19;;;10.88;58.80
72428;BME280;60419;48.880;18.036;2023-04-21T00:14:06;99073.69;;;10.94;58.60
72428;BME280;60419;48.880;18.036;2023-04-21T00:16:52;99072.13;;;10.79;59.10
72428;BME280;60419;48.880;18.036;2023-04-21T00:19:37;99065.69;;;10.89;58.65
72428;BME280;60419;48.880;18.036;2023-04-21T00:22:22;99068.72;;;10.87;58.89
72428;BME280;60419;48.880;18.036;2023-04-21T00:25:08;99084.81;;;10.92;58.88
72428;BME280;60419;48.880;18.036;2023-04-21T00:27:54;99063.41;;;10.46;60.07
72428;BME280;60419;48.880;18.036;2023-04-21T00:30:39;99056.72;;;10.43;59.93
72428;BME280;60419;48.880;18.036;2023-04-21T00:33:25;99086.59;;;10.60;59.99
72428;BME280;60419;48.880;18.036;2023-04-21T00:36:10;99085.38;;;10.67;60.13
72428;BME280;60419;48.880;18.036;2023-04-21T00:38:56;99075.78;;;10.60;59.48
72428;BME280;60419;48.880;18.036;2023-04-21T00:41:41;99084.53;;;10.44;60.67
72428;BME280;60419;48.880;18.036;2023-04-21T00:44:27;99086.47;;;10.29;60.57
72428;BME280;60419;48.880;18.036;2023-04-21T00:47:12;99083.41;;;10.58;60.04
72428;BME280;60419;48.880;18.036;2023-04-21T00:49:58;99079.22;;;10.52;60.33
72428;BME280;60419;48.880;18.036;2023-04-21T00:52:44;99070.84;;;10.40;60.62
72428;BME280;60419;48.880;18.036;2023-04-21T00:55:31;99072.47;;;10.27;60.77
72428;BME280;60419;48.880;18.036;2023-04-21T00:58:16;99079.66;;;10.32;60.70
72428;BME280;60419;48.880;18.036;2023-04-21T01:01:02;99055.47;;;10.27;61.15
72428;BME280;60419;48.880;18.036;2023-04-21T01:03:50;99047.97;;;10.24;60.80
72428;BME280;60419;48.880;18.036;2023-04-21T01:06:36;99073.84;;;10.25;60.71
72428;BME280;60419;48.880;18.036;2023-04-21T01:09:21;99053.13;;;10.48;60.39
72428;BME280;60419;48.880;18.036;2023-04-21T01:12:08;99041.56;;;10.20;61.00
72428;BME280;60419;48.880;18.036;2023-04-21T01:14:54;99065.38;;;10.17;61.39
72428;BME280;60419;48.880;18.036;2023-04-21T01:17:40;99055.25;;;10.23;61.20
72428;BME280;60419;48.880;18.036;2023-04-21T01:20:25;99069.28;;;9.98;61.88
72428;BME280;60419;48.880;18.036;2023-04-21T01:23:13;99068.97;;;9.99;62.38
72428;BME280;60419;48.880;18.036;2023-04-21T01:25:59;99071.97;;;9.84;63.02
72428;BME280;60419;48.880;18.036;2023-04-21T01:28:44;99081.50;;;9.95;62.41
72428;BME280;60419;48.880;18.036;2023-04-21T01:31:31;99076.47;;;10.02;61.84
72428;BME280;60419;48.880;18.036;2023-04-21T01:34:17;99076.19;;;9.90;62.34
72428;BME280;60419;48.880;18.036;2023-04-21T01:37:02;99077.16;;;10.08;61.48
72428;BME280;60419;48.880;18.036;2023-04-21T01:39:51;99063.59;;;9.99;61.40
72428;BME280;60419;48.880;18.036;2023-04-21T01:42:40;99052.41;;;10.06;61.68
72428;BME280;60419;48.880;18.036;2023-04-21T01:45:26;99052.09;;;10.21;60.98
72428;BME280;60419;48.880;18.036;2023-04-21T01:48:12;99068.06;;;10.17;61.40
72428;BME280;60419;48.880;18.036;2023-04-21T01:50:57;99060.56;;;9.87;62.37
72428;BME280;60419;48.880;18.036;2023-04-21T01:53:42;99059.38;;;9.79;62.51
72428;BME280;60419;48.880;18.036;2023-04-21T01:56:28;99061.09;;;9.75;62.24
72428;BME280;60419;48.880;18.036;2023-04-21T01:59:13;99064.59;;;10.03;61.80
72428;BME280;60419;48.880;18.036;2023-04-21T02:01:58;99076.56;;;9.83;62.01
72428;BME280;60419;48.880;18.036;2023-04-21T02:04:44;99070.88;;;10.26;60.97
72428;BME280;60419;48.880;18.036;2023-04-21T02:07:30;99075.97;;;10.14;61.13
72428;BME280;60419;48.880;18.036;2023-04-21T02:10:16;99081.88;;;10.16;61.08
72428;BME280;60419;48.880;18.036;2023-04-21T02:13:01;99084.16;;;10.23;60.76
72428;BME280;60419;48.880;18.036;2023-04-21T02:15:46;99097.69;;;10.59;60.36
72428;BME280;60419;48.880;18.036;2023-04-21T02:18:32;99083.47;;;11.03;59.39
72428;BME280;60419;48.880;18.036;2023-04-21T02:21:19;99079.88;;;11.39;58.36
72428;BME280;60419;48.880;18.036;2023-04-21T02:24:05;99085.66;;;11.46;57.97
72428;BME280;60419;48.880;18.036;2023-04-21T02:26:51;99073.41;;;11.18;58.12
72428;BME280;60419;48.880;18.036;2023-04-21T02:29:36;99089.53;;;10.36;60.65
72428;BME280;60419;48.880;18.036;2023-04-21T02:32:21;99078.78;;;10.59;60.09
72428;BME280;60419;48.880;18.036;2023-04-21T02:35:07;99095.75;;;10.23;60.64
72428;BME280;60419;48.880;18.036;2023-04-21T02:37:53;99104.66;;;9.96;61.19
72428;BME280;60419;48.880;18.036;2023-04-21T02:40:38;99097.75;;;9.29;63.68
72428;BME280;60419;48.880;18.036;2023-04-21T02:43:23;99098.09;;;9.42;63.85
72428;BME280;60419;48.880;18.036;2023-04-21T02:46:09;99097.66;;;9.67;63.36
72428;BME280;60419;48.880;18.036;2023-04-21T02:48:54;99096.81;;;9.53;63.40
72428;BME280;60419;48.880;18.036;2023-04-21T02:51:40;99099.06;;;9.13;64.60
72428;BME280;60419;48.880;18.036;2023-04-21T02:54:25;99093.25;;;9.25;64.67
72428;BME280;60419;48.880;18.036;2023-04-21T02:57:10;99096.16;;;9.75;63.08
72428;BME280;60419;48.880;18.036;2023-04-21T02:59:56;99096.28;;;10.11;61.62
72428;BME280;60419;48.880;18.036;2023-04-21T03:02:41;99105.53;;;10.05;61.80
72428;BME280;60419;48.880;18.036;2023-04-21T03:05:27;99098.84;;;9.75;63.17
72428;BME280;60419;48.880;18.036;2023-04-21T03:08:12;99084.44;;;9.19;64.29
72428;BME280;60419;48.880;18.036;2023-04-21T03:10:59;99096.81;;;9.53;64.20
72428;BME280;60419;48.880;18.036;2023-04-21T03:13:44;99095.63;;;9.26;64.47
72428;BME280;60419;48.880;18.036;2023-04-21T03:16:30;99101.50;;;9.15;65.36
72428;BME280;60419;48.880;18.036;2023-04-21T03:19:15;99102.44;;;9.57;63.91
72428;BME280;60419;48.880;18.036;2023-04-21T03:22:00;99105.16;;;10.12;62.46
72428;BME280;60419;48.880;18.036;2023-04-21T03:24:46;99104.84;;;10.27;62.09
72428;BME280;60419;48.880;18.036;2023-04-21T03:27:32;99111.91;;;10.51;61.75
72428;BME280;60419;48.880;18.036;2023-04-21T03:30:17;99104.22;;;10.80;60.12
72428;BME280;60419;48.880;18.036;2023-04-21T03:33:03;99099.81;;;9.38;63.91
72428;BME280;60419;48.880;18.036;2023-04-21T03:35:50;99098.53;;;8.78;65.91
72428;BME280;60419;48.880;18.036;2023-04-21T03:38:35;99106.00;;;9.19;65.48
72428;BME280;60419;48.880;18.036;2023-04-21T03:41:20;99094.75;;;9.78;63.18
72428;BME280;60419;48.880;18.036;2023-04-21T03:44:06;99114.75;;;10.18;61.92
72428;BME280;60419;48.880;18.036;2023-04-21T03:46:52;99096.47;;;10.15;61.32
72428;BME280;60419;48.880;18.036;2023-04-21T03:49:38;99093.25;;;9.99;62.33
72428;BME280;60419;48.880;18.036;2023-04-21T03:52:23;99106.88;;;9.34;64.08
72428;BME280;60419;48.880;18.036;2023-04-21T03:55:09;99108.44;;;9.67;63.72
72428;BME280;60419;48.880;18.036;2023-04-21T03:57:55;99045.28;;;9.68;62.64
72428;BME280;60419;48.880;18.036;2023-04-21T04:00:41;99108.03;;;10.43;61.82
72428;BME280;60419;48.880;18.036;2023-04-21T04:03:26;99101.81;;;9.27;64.44
72428;BME280;60419;48.880;18.036;2023-04-21T04:06:12;99111.72;;;9.64;63.68
72428;BME280;60419;48.880;18.036;2023-04-21T04:08:57;99105.34;;;10.15;62.74
72428;BME280;60419;48.880;18.036;2023-04-21T04:11:43;99112.53;;;9.32;64.97
72428;BME280;60419;48.880;18.036;2023-04-21T04:14:29;99114.53;;;9.87;63.15
72428;BME280;60419;48.880;18.036;2023-04-21T04:17:14;99117.66;;;10.22;62.36
72428;BME280;60419;48.880;18.036;2023-04-21T04:19:59;99118.34;;;10.00;63.13
72428;BME280;60419;48.880;18.036;2023-04-21T04:22:45;99122.63;;;10.28;61.80
72428;BME280;60419;48.880;18.036;2023-04-21T04:25:31;99127.84;;;10.25;62.10
72428;BME280;60419;48.880;18.036;2023-04-21T04:28:17;99121.09;;;9.01;65.73
72428;BME280;60419;48.880;18.036;2023-04-21T04:31:02;99115.38;;;8.70;66.94
72428;BME280;60419;48.880;18.036;2023-04-21T04:33:48;99131.66;;;8.60;67.49
72428;BME280;60419;48.880;18.036;2023-04-21T04:36:33;99117.28;;;8.27;68.44
72428;BME280;60419;48.880;18.036;2023-04-21T04:39:18;99129.50;;;9.14;66.15
72428;BME280;60419;48.880;18.036;2023-04-21T04:42:06;99130.69;;;8.70;66.69
72428;BME280;60419;48.880;18.036;2023-04-21T04:44:53;99127.78;;;8.85;67.32
72428;BME280;60419;48.880;18.036;2023-04-21T04:47:38;99130.13;;;8.92;66.75
72428;BME280;60419;48.880;18.036;2023-04-21T04:50:24;99118.13;;;8.84;66.57
72428;BME280;60419;48.880;18.036;2023-04-21T04:53:10;99129.56;;;9.46;65.36
72428;BME280;60419;48.880;18.036;2023-04-21T04:55:55;99127.38;;;8.78;66.82
72428;BME280;60419;48.880;18.036;2023-04-21T04:58:42;99121.47;;;9.93;63.69
72428;BME280;60419;48.880;18.036;2023-04-21T05:01:30;99128.25;;;10.96;60.81
72428;BME280;60419;48.880;18.036;2023-04-21T05:04:15;99133.44;;;10.14;62.07
72428;BME280;60419;48.880;18.036;2023-04-21T05:07:01;99132.94;;;10.12;62.01
72428;BME280;60419;48.880;18.036;2023-04-21T05:09:47;99132.44;;;9.97;62.67
72428;BME280;60419;48.880;18.036;2023-04-21T05:12:32;99127.41;;;9.76;63.62
72428;BME280;60419;48.880;18.036;2023-04-21T05:15:17;99138.44;;;9.14;65.46
72428;BME280;60419;48.880;18.036;2023-04-21T05:18:03;99142.19;;;9.13;65.17
72428;BME280;60419;48.880;18.036;2023-04-21T05:20:48;99133.22;;;9.37;65.26
72428;BME280;60419;48.880;18.036;2023-04-21T05:23:34;99132.38;;;8.84;66.59
72428;BME280;60419;48.880;18.036;2023-04-21T05:26:19;99134.34;;;9.36;68.20
72428;BME280;60419;48.880;18.036;2023-04-21T05:29:05;99140.13;;;10.31;66.48
72428;BME280;60419;48.880;18.036;2023-04-21T05:31:50;99139.06;;;9.06;65.69
72428;BME280;60419;48.880;18.036;2023-04-21T05:34:35;99132.44;;;8.98;65.71
72428;BME280;60419;48.880;18.036;2023-04-21T05:37:21;99139.31;;;8.91;66.65
72428;BME280;60419;48.880;18.036;2023-04-21T05:40:06;99137.16;;;9.25;65.05
72428;BME280;60419;48.880;18.036;2023-04-21T05:42:52;99153.66;;;9.57;64.22
72428;BME280;60419;48.880;18.036;2023-04-21T05:45:38;99133.22;;;9.69;63.46
72428;BME280;60419;48.880;18.036;2023-04-21T05:48:24;99152.16;;;10.11;62.62
72428;BME280;60419;48.880;18.036;2023-04-21T05:51:13;99138.00;;;9.72;63.58
72428;BME280;60419;48.880;18.036;2023-04-21T05:54:01;99140.53;;;9.83;62.89
72428;BME280;60419;48.880;18.036;2023-04-21T05:56:47;99142.03;;;9.23;64.34
72428;BME280;60419;48.880;18.036;2023-04-21T05:59:32;99131.72;;;9.31;65.25
72428;BME280;60419;48.880;18.036;2023-04-21T06:02:18;99132.94;;;9.38;64.51
72428;BME280;60419;48.880;18.036;2023-04-21T06:05:03;99139.41;;;9.37;64.94
72428;BME280;60419;48.880;18.036;2023-04-21T06:07:49;99148.56;;;9.55;63.99
72428;BME280;60419;48.880;18.036;2023-04-21T06:10:34;99101.78;;;9.13;64.38
72428;BME280;60419;48.880;18.036;2023-04-21T06:13:20;99132.72;;;9.67;63.93
72428;BME280;60419;48.880;18.036;2023-04-21T06:16:05;99128.34;;;9.85;63.27
72428;BME280;60419;48.880;18.036;2023-04-21T06:18:51;99132.16;;;10.12;62.58
72428;BME280;60419;48.880;18.036;2023-04-21T06:21:36;99131.22;;;9.75;63.06
72428;BME280;60419;48.880;18.036;2023-04-21T06:24:21;99125.56;;;9.90;63.42
72428;BME280;60419;48.880;18.036;2023-04-21T06:27:12;99129.63;;;9.74;63.50
72428;BME280;60419;48.880;18.036;2023-04-21T06:29:58;99133.25;;;9.97;62.83
72428;BME280;60419;48.880;18.036;2023-04-21T06:32:43;99121.47;;;9.93;62.28
72428;BME280;60419;48.880;18.036;2023-04-21T06:35:30;99098.53;;;9.77;62.29
72428;BME280;60419;48.880;18.036;2023-04-21T06:38:15;99124.88;;;10.26;61.64
72428;BME280;60419;48.880;18.036;2023-04-21T06:41:01;99109.75;;;10.25;61.73
72428;BME280;60419;48.880;18.036;2023-04-21T06:43:48;99121.75;;;10.33;61.87
72428;BME280;60419;48.880;18.036;2023-04-21T06:46:33;99115.78;;;10.72;60.96
72428;BME280;60419;48.880;18.036;2023-04-21T06:49:19;99103.94;;;10.82;60.36
72428;BME280;60419;48.880;18.036;2023-04-21T06:52:04;99123.84;;;10.86;60.59
72428;BME280;60419;48.880;18.036;2023-04-21T06:54:50;99080.13;;;10.84;59.89
72428;BME280;60419;48.880;18.036;2023-04-21T06:57:35;99118.81;;;11.07;60.12
72428;BME280;60419;48.880;18.036;2023-04-21T07:00:21;99112.66;;;10.79;60.18
72428;BME280;60419;48.880;18.036;2023-04-21T07:03:06;99113.31;;;11.21;59.63
72428;BME280;60419;48.880;18.036;2023-04-21T07:05:52;99113.91;;;11.40;59.09
72428;BME280;60419;48.880;18.036;2023-04-21T07:08:38;99100.78;;;11.25;59.07
72428;BME280;60419;48.880;18.036;2023-04-21T07:11:23;99114.03;;;11.35;59.09
72428;BME280;60419;48.880;18.036;2023-04-21T07:14:08;99111.66;;;11.34;58.62
72428;BME280;60419;48.880;18.036;2023-04-21T07:16:55;99116.88;;;11.84;57.70
72428;BME280;60419;48.880;18.036;2023-04-21T07:19:41;99110.97;;;11.82;57.61
72428;BME280;60419;48.880;18.036;2023-04-21T07:22:26;99103.72;;;12.08;56.87
72428;BME280;60419;48.880;18.036;2023-04-21T07:25:12;99110.22;;;12.30;56.82
72428;BME280;60419;48.880;18.036;2023-04-21T07:27:57;99097.47;;;12.30;56.71
72428;BME280;60419;48.880;18.036;2023-04-21T07:30:42;99118.84;;;12.58;55.82
72428;BME280;60419;48.880;18.036;2023-04-21T07:33:28;99113.53;;;12.27;55.66
72428;BME280;60419;48.880;18.036;2023-04-21T07:36:13;99103.72;;;12.57;55.58
72428;BME280;60419;48.880;18.036;2023-04-21T07:38:59;99103.44;;;12.19;56.20
72428;BME280;60419;48.880;18.036;2023-04-21T07:41:45;99107.75;;;12.77;54.78
72428;BME280;60419;48.880;18.036;2023-04-21T07:44:30;99110.06;;;12.44;55.64
72428;BME280;60419;48.880;18.036;2023-04-21T07:47:15;99115.84;;;12.86;54.06
72428;BME280;60419;48.880;18.036;2023-04-21T07:50:01;99102.97;;;13.00;53.60
72428;BME280;60419;48.880;18.036;2023-04-21T07:52:46;99108.66;;;13.25;53.21
72428;BME280;60419;48.880;18.036;2023-04-21T07:55:32;99099.56;;;13.20;51.39
72428;BME280;60419;48.880;18.036;2023-04-21T07:58:18;99110.75;;;13.19;53.01
72428;BME280;60419;48.880;18.036;2023-04-21T08:01:04;99103.25;;;13.16;50.47
72428;BME280;60419;48.880;18.036;2023-04-21T08:03:49;99108.97;;;13.23;52.27
72428;BME280;60419;48.880;18.036;2023-04-21T08:06:34;99100.50;;;13.42;52.09
72428;BME280;60419;48.880;18.036;2023-04-21T08:09:20;99105.13;;;13.41;50.94
72428;BME280;60419;48.880;18.036;2023-04-21T08:12:05;99103.31;;;14.40;48.33
72428;BME280;60419;48.880;18.036;2023-04-21T08:14:50;99102.03;;;14.67;48.45
72428;BME280;60419;48.880;18.036;2023-04-21T08:17:36;99109.53;;;14.40;47.04
72428;BME280;60419;48.880;18.036;2023-04-21T08:20:21;99104.19;;;14.52;47.51
72428;BME280;60419;48.880;18.036;2023-04-21T08:23:06;99098.81;;;14.14;48.08
72428;BME280;60419;48.880;18.036;2023-04-21T08:25:52;99103.06;;;14.83;47.77
72428;BME280;60419;48.880;18.036;2023-04-21T08:28:38;99097.97;;;15.48;44.72
72428;BME280;60419;48.880;18.036;2023-04-21T08:31:24;99081.25;;;16.32;42.41
72428;BME280;60419;48.880;18.036;2023-04-21T08:34:09;99089.84;;;16.46;40.91
72428;BME280;60419;48.880;18.036;2023-04-21T08:36:55;99065.31;;;16.59;40.59
72428;BME280;60419;48.880;18.036;2023-04-21T08:39:40;99076.97;;;16.31;39.78
72428;BME280;60419;48.880;18.036;2023-04-21T08:42:26;99072.88;;;15.88;41.14
72428;BME280;60419;48.880;18.036;2023-04-21T08:45:11;99077.22;;;15.10;40.98
72428;BME280;60419;48.880;18.036;2023-04-21T08:47:58;99074.06;;;15.66;39.86
72428;BME280;60419;48.880;18.036;2023-04-21T08:50:46;99069.81;;;15.90;38.05
72428;BME280;60419;48.880;18.036;2023-04-21T08:53:32;99064.53;;;15.72;39.10
72428;BME280;60419;48.880;18.036;2023-04-21T08:56:18;99064.53;;;15.72;40.43
72428;BME280;60419;48.880;18.036;2023-04-21T08:59:03;99066.50;;;15.84;39.99
72428;BME280;60419;48.880;18.036;2023-04-21T09:02:11;99061.63;;;15.77;41.04
72428;BME280;60419;48.880;18.036;2023-04-21T09:04:56;99064.53;;;15.48;42.03
72428;BME280;60419;48.880;18.036;2023-04-21T09:07:43;99058.25;;;16.05;40.53
72428;BME280;60419;48.880;18.036;2023-04-21T09:10:29;99052.50;;;15.61;40.03
72428;BME280;60419;48.880;18.036;2023-04-21T09:13:15;99050.25;;;16.12;39.30
72428;BME280;60419;48.880;18.036;2023-04-21T09:16:05;99049.13;;;15.89;39.12
72428;BME280;60419;48.880;18.036;2023-04-21T09:18:59;99050.72;;;16.26;37.25
72428;BME280;60419;48.880;18.036;2023-04-21T09:21:45;99047.78;;;16.19;37.09
72428;BME280;60419;48.880;18.036;2023-04-21T09:24:30;99051.31;;;16.08;36.71
72428;BME280;60419;48.880;18.036;2023-04-21T09:27:16;99048.00;;;16.02;36.65
72428;BME280;60419;48.880;18.036;2023-04-21T09:30:03;99041.84;;;16.42;35.77
72428;BME280;60419;48.880;18.036;2023-04-21T09:32:54;99044.13;;;16.80;35.18
72428;BME280;60419;48.880;18.036;2023-04-21T09:35:40;99041.09;;;16.98;34.01
72428;BME280;60419;48.880;18.036;2023-04-21T09:38:25;99030.44;;;17.52;33.63
72428;BME280;60419;48.880;18.036;2023-04-21T09:41:10;99033.69;;;17.74;33.21
72428;BME280;60419;48.880;18.036;2023-04-21T09:43:56;99032.88;;;17.10;32.44
72428;BME280;60419;48.880;18.036;2023-04-21T09:46:47;99034.81;;;17.09;31.02
72428;BME280;60419;48.880;18.036;2023-04-21T09:49:36;99019.06;;;17.66;30.98
72428;BME280;60419;48.880;18.036;2023-04-21T09:52:29;99015.66;;;18.01;31.20
72428;BME280;60419;48.880;18.036;2023-04-21T09:55:15;99020.78;;;18.22;31.32
72428;BME280;60419;48.880;18.036;2023-04-21T09:58:04;99019.53;;;17.84;30.51
72428;BME280;60419;48.880;18.036;2023-04-21T10:00:51;99011.06;;;17.89;31.01
72428;BME280;60419;48.880;18.036;2023-04-21T10:03:38;99011.00;;;17.86;31.29
72428;BME280;60419;48.880;18.036;2023-04-21T10:06:24;99008.03;;;18.10;31.47
72428;BME280;60419;48.880;18.036;2023-04-21T10:09:11;99002.16;;;17.61;31.30
72428;BME280;60419;48.880;18.036;2023-04-21T10:12:00;99000.81;;;18.02;31.19
72428;BME280;60419;48.880;18.036;2023-04-21T10:14:56;98992.00;;;17.13;32.19
72428;BME280;60419;48.880;18.036;2023-04-21T10:17:42;98984.53;;;17.26;32.43
72428;BME280;60419;48.880;18.036;2023-04-21T10:20:28;98994.84;;;17.65;32.34
72428;BME280;60419;48.880;18.036;2023-04-21T10:23:25;98993.28;;;17.79;31.85
72428;BME280;60419;48.880;18.036;2023-04-21T10:29:05;98999.09;;;18.13;31.72
72428;BME280;60419;48.880;18.036;2023-04-21T10:31:52;98986.56;;;18.28;31.03
72428;BME280;60419;48.880;18.036;2023-04-21T10:34:37;98956.81;;;17.40;31.93
72428;BME280;60419;48.880;18.036;2023-04-21T10:37:23;98976.34;;;17.26;32.56
72428;BME280;60419;48.880;18.036;2023-04-21T10:43:43;98975.75;;;17.33;32.25
72428;BME280;60419;48.880;18.036;2023-04-21T10:46:46;98974.00;;;17.56;32.37
72428;BME280;60419;48.880;18.036;2023-04-21T10:49:37;98979.53;;;17.28;33.42
72428;BME280;60419;48.880;18.036;2023-04-21T10:52:31;98980.97;;;17.38;33.10
72428;BME280;60419;48.880;18.036;2023-04-21T10:55:17;98975.28;;;17.63;32.40
72428;BME280;60419;48.880;18.036;2023-04-21T10:58:06;98971.44;;;18.34;31.51
72428;BME280;60419;48.880;18.036;2023-04-21T11:00:53;98969.16;;;18.75;30.79
72428;BME280;60419;48.880;18.036;2023-04-21T11:03:40;98961.56;;;17.43;31.87
72428;BME280;60419;48.880;18.036;2023-04-21T11:06:25;98966.06;;;16.76;33.55
72428;BME280;60419;48.880;18.036;2023-04-21T11:09:11;98965.50;;;16.70;33.62
72428;BME280;60419;48.880;18.036;2023-04-21T11:12:00;98959.16;;;16.94;32.82
72428;BME280;60419;48.880;18.036;2023-04-21T11:14:46;98942.56;;;17.31;31.90
72428;BME280;60419;48.880;18.036;2023-04-21T11:17:32;98950.41;;;17.99;31.38
72428;BME280;60419;48.880;18.036;2023-04-21T11:20:17;98962.59;;;18.41;30.73
72428;BME280;60419;48.880;18.036;2023-04-21T11:23:03;98958.09;;;17.94;30.76
72428;BME280;60419;48.880;18.036;2023-04-21T11:25:48;98959.63;;;18.11;29.90
72428;BME280;60419;48.880;18.036;2023-04-21T11:28:34;98950.38;;;18.35;29.53
72428;BME280;60419;48.880;18.036;2023-04-21T11:31:19;98950.63;;;18.10;29.74
72428;BME280;60419;48.880;18.036;2023-04-21T11:34:05;98948.97;;;19.03;28.94
72428;BME280;60419;48.880;18.036;2023-04-21T11:36:51;98943.84;;;19.01;28.78
72428;BME280;60419;48.880;18.036;2023-04-21T11:39:39;98945.97;;;18.50;29.26
72428;BME280;60419;48.880;18.036;2023-04-21T11:42:26;98918.81;;;18.60;29.21
72428;BME280;60419;48.880;18.036;2023-04-21T11:45:16;98940.78;;;18.25;29.09
72428;BME280;60419;48.880;18.036;2023-04-21T11:48:15;98934.44;;;18.60;28.84
72428;BME280;60419;48.880;18.036;2023-04-21T11:51:01;98938.50;;;17.56;30.28
72428;BME280;60419;48.880;18.036;2023-04-21T11:53:46;98926.34;;;17.22;30.50
72428;BME280;60419;48.880;18.036;2023-04-21T11:56:36;98929.41;;;18.62;28.94
72428;BME280;60419;48.880;18.036;2023-04-21T11:59:22;98921.59;;;19.03;28.46
72428;BME280;60419;48.880;18.036;2023-04-21T12:02:12;98918.47;;;19.77;28.00
72428;BME280;60419;48.880;18.036;2023-04-21T12:05:07;98922.63;;;18.95;28.66
72428;BME280;60419;48.880;18.036;2023-04-21T12:07:54;98915.78;;;19.81;29.09
72428;BME280;60419;48.880;18.036;2023-04-21T12:10:44;98898.38;;;19.96;27.81
72428;BME280;60419;48.880;18.036;2023-04-21T12:13:30;98913.88;;;19.58;27.97
72428;BME280;60419;48.880;18.036;2023-04-21T12:16:17;98909.34;;;19.20;28.21
72428;BME280;60419;48.880;18.036;2023-04-21T12:19:02;98905.84;;;19.46;28.42
72428;BME280;60419;48.880;18.036;2023-04-21T12:21:54;98897.53;;;19.39;28.20
72428;BME280;60419;48.880;18.036;2023-04-21T12:24:43;98892.69;;;19.28;28.43
72428;BME280;60419;48.880;18.036;2023-04-21T12:27:28;98887.44;;;19.20;28.42
72428;BME280;60419;48.880;18.036;2023-04-21T12:30:14;98886.34;;;19.24;30.18
72428;BME280;60419;48.880;18.036;2023-04-21T12:33:00;98879.22;;;18.97;29.83
72428;BME280;60419;48.880;18.036;2023-04-21T12:35:45;98874.41;;;19.36;28.94
72428;BME280;60419;48.880;18.036;2023-04-21T12:38:31;98878.78;;;19.18;28.74
72428;BME280;60419;48.880;18.036;2023-04-21T12:41:16;98877.94;;;18.67;29.10
72428;BME280;60419;48.880;18.036;2023-04-21T12:44:02;98871.41;;;18.95;29.33
72428;BME280;60419;48.880;18.036;2023-04-21T12:46:47;98870.34;;;19.53;29.41
72428;BME280;60419;48.880;18.036;2023-04-21T12:49:35;98864.16;;;19.33;28.46
72428;BME280;60419;48.880;18.036;2023-04-21T12:52:22;98812.31;;;19.17;28.09
72428;BME280;60419;48.880;18.036;2023-04-21T12:55:07;98866.88;;;19.29;28.27
72428;BME280;60419;48.880;18.036;2023-04-21T12:57:53;98863.56;;;19.70;28.02
72428;BME280;60419;48.880;18.036;2023-04-21T13:00:38;98860.25;;;20.17;28.50
72428;BME280;60419;48.880;18.036;2023-04-21T13:03:25;98859.28;;;20.03;27.85
72428;BME280;60419;48.880;18.036;2023-04-21T13:06:11;98846.97;;;19.32;28.82
72428;BME280;60419;48.880;18.036;2023-04-21T13:08:56;98848.44;;;19.26;29.58
72428;BME280;60419;48.880;18.036;2023-04-21T13:11:41;98845.66;;;19.76;30.80
72428;BME280;60419;48.880;18.036;2023-04-21T13:14:27;98840.81;;;19.96;29.79
72428;BME280;60419;48.880;18.036;2023-04-21T13:17:14;98846.09;;;19.82;29.84
72428;BME280;60419;48.880;18.036;2023-04-21T13:20:00;98846.31;;;19.43;31.23
72428;BME280;60419;48.880;18.036;2023-04-21T13:22:45;98841.50;;;19.59;30.18
72428;BME280;60419;48.880;18.036;2023-04-21T13:25:31;98844.06;;;19.22;28.93
72428;BME280;60419;48.880;18.036;2023-04-21T13:28:16;98843.56;;;19.96;29.06
72428;BME280;60419;48.880;18.036;2023-04-21T13:31:02;98840.91;;;19.73;30.18
72428;BME280;60419;48.880;18.036;2023-04-21T13:33:48;98843.50;;;19.62;30.08
72428;BME280;60419;48.880;18.036;2023-04-21T13:36:33;98832.28;;;20.05;28.68
72428;BME280;60419;48.880;18.036;2023-04-21T13:39:19;98830.88;;;19.84;28.16
72428;BME280;60419;48.880;18.036;2023-04-21T13:42:05;98834.66;;;20.06;28.56
72428;BME280;60419;48.880;18.036;2023-04-21T13:44:50;98825.75;;;20.16;26.83
72428;BME280;60419;48.880;18.036;2023-04-21T13:47:36;98821.13;;;19.87;28.08
72428;BME280;60419;48.880;18.036;2023-04-21T13:50:21;98824.41;;;19.69;28.94
72428;BME280;60419;48.880;18.036;2023-04-21T13:53:07;98814.75;;;19.79;29.81
72428;BME280;60419;48.880;18.036;2023-04-21T13:55:52;98819.44;;;19.79;31.15
72428;BME280;60419;48.880;18.036;2023-04-21T13:58:41;98812.88;;;20.20;30.28
72428;BME280;60419;48.880;18.036;2023-04-21T14:01:26;98806.75;;;20.72;28.32
72428;BME280;60419;48.880;18.036;2023-04-21T14:04:12;98813.53;;;20.85;29.75
72428;BME280;60419;48.880;18.036;2023-04-21T14:06:57;98805.59;;;21.24;29.05
72428;BME280;60419;48.880;18.036;2023-04-21T14:09:43;98792.72;;;21.32;28.41
72428;BME280;60419;48.880;18.036;2023-04-21T14:12:28;98791.00;;;20.61;28.08
72428;BME280;60419;48.880;18.036;2023-04-21T14:15:14;98799.72;;;20.37;27.06
72428;BME280;60419;48.880;18.036;2023-04-21T14:17:59;98794.94;;;19.06;28.43
72428;BME280;60419;48.880;18.036;2023-04-21T14:20:45;98794.91;;;18.79;29.39
72428;BME280;60419;48.880;18.036;2023-04-21T14:23:30;98771.28;;;18.94;28.79
72428;BME280;60419;48.880;18.036;2023-04-21T14:26:16;98791.91;;;18.88;29.03
72428;BME280;60419;48.880;18.036;2023-04-21T14:29:01;98793.78;;;19.07;29.22
72428;BME280;60419;48.880;18.036;2023-04-21T14:31:47;98793.50;;;18.66;29.10
72428;BME280;60419;48.880;18.036;2023-04-21T14:34:32;98772.16;;;18.52;29.27
72428;BME280;60419;48.880;18.036;2023-04-21T14:37:21;98789.84;;;19.31;29.16